Time;durP1;ratioP1;P1;durP2;ratioP2;P2;SDS_P1;SDS_P2;PMS_P1;PMS_P2;Temp;Humidity;BMP_temperature;BMP_pressure;BME280_temperature;BME280_humidity;BME280_pressure;Samples;Min_cycle;Max_cycle;Signal;HPM_P1;HPM_P2
2022/02/27 00:00:42;;;;;;;31.07;14.23;;;;;;;;;;5070199;28;20209;-67
2022/02/27 00:03:07;;;;;;;29.97;14.03;;;;;;;;;;5051766;28;20250;-67
2022/02/27 00:05:32;;;;;;;27.73;13.57;;;;;;;;;;5070217;28;20511;-67
2022/02/27 00:07:57;;;;;;;29.33;14.17;;;;;;;;;;5068123;28;20185;-67
2022/02/27 00:10:23;;;;;;;31.50;14.40;;;;;;;;;;5067211;28;20195;-67
2022/02/27 00:12:48;;;;;;;29.70;13.67;;;;;;;;;;5068659;28;20624;-66
2022/02/27 00:15:14;;;;;;;31.90;15.10;;;;;;;;;;5069800;28;20204;-66
2022/02/27 00:17:40;;;;;;;34.43;14.67;;;;;;;;;;5070742;28;20196;-67
2022/02/27 00:20:06;;;;;;;27.00;13.80;;;;;;;;;;5069835;28;20194;-68
2022/02/27 00:22:32;;;;;;;35.03;14.43;;;;;;;;;;5066010;28;20208;-68
2022/02/27 00:24:58;;;;;;;32.67;12.97;;;;;;;;;;5063317;28;20169;-68
2022/02/27 00:27:23;;;;;;;32.77;16.23;;;;;;;;;;5067618;28;20197;-67
2022/02/27 00:29:48;;;;;;;35.00;14.23;;;;;;;;;;5068263;28;20183;-67
2022/02/27 00:32:13;;;;;;;32.47;14.83;;;;;;;;;;5070317;28;20303;-67
2022/02/27 00:34:38;;;;;;;30.93;14.73;;;;;;;;;;5051766;28;20180;-65
2022/02/27 00:37:04;;;;;;;30.13;14.03;;;;;;;;;;5068264;28;20208;-67
2022/02/27 00:39:29;;;;;;;31.67;14.70;;;;;;;;;;5067265;28;20234;-67
2022/02/27 00:41:54;;;;;;;26.60;13.70;;;;;;;;;;5066258;28;20192;-65
2022/02/27 00:44:20;;;;;;;30.17;15.07;;;;;;;;;;5066619;28;20623;-68
2022/02/27 00:46:45;;;;;;;28.53;15.13;;;;;;;;;;5073155;28;20176;-67
2022/02/27 00:49:10;;;;;;;35.20;13.80;;;;;;;;;;5072903;28;20537;-67
2022/02/27 00:51:36;;;;;;;23.37;13.80;;;;;;;;;;5069259;28;20211;-68
2022/02/27 00:54:01;;;;;;;36.40;14.50;;;;;;;;;;5068347;28;20200;-67
2022/02/27 00:56:26;;;;;;;34.60;14.33;;;;;;;;;;5067713;28;20581;-67
2022/02/27 00:58:51;;;;;;;34.50;14.73;;;;;;;;;;5069305;28;20666;-67
2022/02/27 01:01:20;;;;;;;43.80;15.70;;;;;;;;;;5065844;28;20256;-67
2022/02/27 01:03:45;;;;;;;33.30;14.20;;;;;;;;;;5047839;28;20641;-67
2022/02/27 01:06:10;;;;;;;30.57;14.00;;;;;;;;;;5067305;28;20200;-68
2022/02/27 01:08:35;;;;;;;36.53;14.37;;;;;;;;;;5069085;28;20658;-68
2022/02/27 01:11:00;;;;;;;34.17;14.30;;;;;;;;;;5067251;28;20173;-67
2022/02/27 01:13:26;;;;;;;37.97;15.37;;;;;;;;;;5058397;28;20205;-67
2022/02/27 01:15:51;;;;;;;37.93;14.60;;;;;;;;;;5073504;28;20661;-67
2022/02/27 01:18:16;;;;;;;46.90;14.87;;;;;;;;;;5050788;28;20586;-66
2022/02/27 01:20:41;;;;;;;27.00;13.43;;;;;;;;;;5073875;28;20487;-68
2022/02/27 01:23:06;;;;;;;26.53;13.67;;;;;;;;;;5053534;28;20658;-65
2022/02/27 01:25:31;;;;;;;29.80;13.17;;;;;;;;;;5068985;28;20177;-67
2022/02/27 01:27:57;;;;;;;29.57;13.87;;;;;;;;;;5073434;28;20529;-67
2022/02/27 01:30:22;;;;;;;29.20;14.43;;;;;;;;;;5072203;28;20281;-67
2022/02/27 01:32:47;;;;;;;34.83;14.27;;;;;;;;;;5060281;28;20578;-66
2022/02/27 01:35:13;;;;;;;32.63;14.87;;;;;;;;;;5061481;28;20205;-66
2022/02/27 01:37:38;;;;;;;28.33;13.57;;;;;;;;;;5056597;28;20375;-66
2022/02/27 01:40:04;;;;;;;26.90;12.33;;;;;;;;;;5052890;28;20242;-66
2022/02/27 01:42:30;;;;;;;28.00;13.47;;;;;;;;;;5050168;28;20212;-68
2022/02/27 01:44:55;;;;;;;31.27;12.77;;;;;;;;;;5069671;28;20181;-68
2022/02/27 01:47:20;;;;;;;29.23;12.17;;;;;;;;;;5050289;28;20193;-66
2022/02/27 01:49:47;;;;;;;31.07;12.17;;;;;;;;;;5061659;28;20184;-68
2022/02/27 01:52:14;;;;;;;34.40;12.87;;;;;;;;;;5064600;28;20196;-67
2022/02/27 01:54:40;;;;;;;28.73;13.33;;;;;;;;;;5068187;28;20184;-67
2022/02/27 01:57:05;;;;;;;23.80;12.50;;;;;;;;;;5065400;28;20196;-68
2022/02/27 01:59:31;;;;;;;19.97;10.83;;;;;;;;;;5072158;28;20169;-67
2022/02/27 02:01:56;;;;;;;24.27;11.13;;;;;;;;;;5051014;28;20201;-68
2022/02/27 02:04:21;;;;;;;24.27;12.23;;;;;;;;;;5071968;28;20188;-67
2022/02/27 02:06:47;;;;;;;29.40;11.73;;;;;;;;;;5071001;28;20704;-67
2022/02/27 02:09:12;;;;;;;21.67;10.87;;;;;;;;;;5073740;28;20204;-67
2022/02/27 02:11:38;;;;;;;25.43;11.47;;;;;;;;;;5072038;28;20196;-67
2022/02/27 02:14:03;;;;;;;17.40;10.43;;;;;;;;;;5059130;28;20689;-68
2022/02/27 02:16:44;;;;;;;24.13;11.93;;;;;;;;;;5075584;28;20185;-67
2022/02/27 02:19:09;;;;;;;24.63;11.27;;;;;;;;;;5070861;28;20207;-68
2022/02/27 02:21:44;;;;;;;19.10;11.63;;;;;;;;;;5069549;28;20192;-68
2022/02/27 02:24:10;;;;;;;22.97;10.60;;;;;;;;;;5051049;28;20208;-67
2022/02/27 02:26:36;;;;;;;31.00;12.60;;;;;;;;;;5069675;28;20611;-67
2022/02/27 02:29:03;;;;;;;19.03;11.23;;;;;;;;;;5070176;28;20335;-67
2022/02/27 02:31:28;;;;;;;28.97;11.40;;;;;;;;;;5051028;28;20195;-67
2022/02/27 02:33:53;;;;;;;28.17;10.77;;;;;;;;;;5076197;22;20232;-69
2022/02/27 02:36:18;;;;;;;21.37;12.20;;;;;;;;;;5070684;28;20181;-67
2022/02/27 02:38:43;;;;;;;22.17;10.17;;;;;;;;;;5070308;28;20266;-70
2022/02/27 02:41:09;;;;;;;22.40;11.03;;;;;;;;;;5052870;28;20183;-66
2022/02/27 02:43:35;;;;;;;20.60;10.37;;;;;;;;;;5055362;28;20742;-67
2022/02/27 02:46:00;;;;;;;23.97;11.57;;;;;;;;;;5049908;28;20181;-66
2022/02/27 02:48:25;;;;;;;26.03;11.40;;;;;;;;;;5050256;28;20181;-66
2022/02/27 02:50:50;;;;;;;19.87;10.67;;;;;;;;;;5051870;28;20399;-66
2022/02/27 02:53:16;;;;;;;26.57;11.23;;;;;;;;;;5051910;28;20209;-69
2022/02/27 02:55:41;;;;;;;22.67;10.10;;;;;;;;;;5049209;28;20181;-67
2022/02/27 02:58:06;;;;;;;23.13;11.43;;;;;;;;;;5051823;28;20189;-66
2022/02/27 03:00:33;;;;;;;21.17;10.07;;;;;;;;;;5050145;28;20189;-66
2022/02/27 03:02:58;;;;;;;17.87;10.17;;;;;;;;;;5052195;28;20200;-67
2022/02/27 03:05:23;;;;;;;24.63;10.63;;;;;;;;;;5050535;28;20177;-69
2022/02/27 03:07:48;;;;;;;22.33;11.33;;;;;;;;;;5051792;28;20557;-69
2022/02/27 03:10:14;;;;;;;18.97;9.90;;;;;;;;;;5050205;28;20198;-66
2022/02/27 03:12:39;;;;;;;18.93;10.17;;;;;;;;;;5051457;28;20208;-67
2022/02/27 03:15:06;;;;;;;18.80;10.00;;;;;;;;;;5049814;28;20643;-69
2022/02/27 03:17:31;;;;;;;20.37;10.10;;;;;;;;;;5049805;28;20837;-66
2022/02/27 03:19:56;;;;;;;21.23;10.63;;;;;;;;;;5039769;28;20177;-66
2022/02/27 03:22:21;;;;;;;20.43;10.80;;;;;;;;;;5049020;28;20250;-67
2022/02/27 03:24:46;;;;;;;20.00;9.97;;;;;;;;;;5050907;28;20173;-68
2022/02/27 03:27:12;;;;;;;27.57;10.20;;;;;;;;;;5050003;28;20873;-67
2022/02/27 03:29:37;;;;;;;24.00;10.47;;;;;;;;;;5049033;28;20565;-66
2022/02/27 03:32:03;;;;;;;19.80;9.10;;;;;;;;;;5048985;28;20174;-67
2022/02/27 03:34:28;;;;;;;19.87;10.37;;;;;;;;;;5049451;28;20186;-67
2022/02/27 03:36:53;;;;;;;19.90;9.47;;;;;;;;;;5051112;28;20186;-67
2022/02/27 03:39:18;;;;;;;21.00;10.17;;;;;;;;;;5051190;28;20259;-66
2022/02/27 03:41:43;;;;;;;17.37;10.20;;;;;;;;;;5050582;28;20261;-68
2022/02/27 03:44:09;;;;;;;23.90;10.63;;;;;;;;;;5050199;28;20190;-67
2022/02/27 03:46:34;;;;;;;20.17;9.97;;;;;;;;;;5049770;28;20182;-67
2022/02/27 03:49:06;;;;;;;24.77;9.33;;;;;;;;;;5050384;28;20568;-67
2022/02/27 03:51:32;;;;;;;23.17;9.97;;;;;;;;;;5050805;28;20185;-66
2022/02/27 03:53:57;;;;;;;20.20;9.83;;;;;;;;;;5048555;28;20577;-66
2022/02/27 03:56:22;;;;;;;25.37;10.80;;;;;;;;;;5050560;28;20185;-67
2022/02/27 03:58:48;;;;;;;18.47;10.33;;;;;;;;;;5050432;28;20224;-67
2022/02/27 04:01:13;;;;;;;15.90;10.73;;;;;;;;;;5050767;28;20264;-67
2022/02/27 04:03:38;;;;;;;23.00;10.57;;;;;;;;;;5048869;28;20296;-67
2022/02/27 04:06:03;;;;;;;22.63;10.03;;;;;;;;;;5049979;28;20264;-67
2022/02/27 04:08:29;;;;;;;18.57;9.20;;;;;;;;;;5054585;28;20269;-67
2022/02/27 04:10:54;;;;;;;20.20;8.87;;;;;;;;;;5044765;28;20188;-67
2022/02/27 04:13:19;;;;;;;21.23;9.37;;;;;;;;;;5049478;28;20213;-67
2022/02/27 04:15:44;;;;;;;17.97;9.20;;;;;;;;;;5050109;28;20190;-67
2022/02/27 04:18:09;;;;;;;17.43;9.13;;;;;;;;;;5049895;28;20202;-67
2022/02/27 04:20:35;;;;;;;16.87;8.83;;;;;;;;;;5050829;28;20536;-68
2022/02/27 04:23:00;;;;;;;21.73;10.13;;;;;;;;;;5055729;28;20197;-67
2022/02/27 04:25:25;;;;;;;21.80;8.87;;;;;;;;;;5046907;28;20212;-67
2022/02/27 04:27:50;;;;;;;16.90;9.13;;;;;;;;;;5052505;28;20181;-67
2022/02/27 04:30:15;;;;;;;17.20;9.40;;;;;;;;;;5050230;28;20560;-68
2022/02/27 04:32:41;;;;;;;21.60;10.70;;;;;;;;;;5048685;28;20581;-67
2022/02/27 04:35:06;;;;;;;18.10;9.23;;;;;;;;;;5050562;28;20654;-66
2022/02/27 04:37:31;;;;;;;18.90;9.10;;;;;;;;;;5047014;28;20240;-68
2022/02/27 04:39:56;;;;;;;19.13;9.07;;;;;;;;;;5049875;28;20228;-67
2022/02/27 04:42:21;;;;;;;17.50;9.20;;;;;;;;;;5030359;28;20197;-68
2022/02/27 04:44:47;;;;;;;18.63;9.40;;;;;;;;;;5050501;28;20682;-67
2022/02/27 04:47:12;;;;;;;14.50;9.23;;;;;;;;;;5031470;28;20186;-68
2022/02/27 04:49:37;;;;;;;13.37;9.50;;;;;;;;;;5048864;28;20190;-68
2022/02/27 04:52:03;;;;;;;15.80;9.00;;;;;;;;;;5050170;28;20185;-68
2022/02/27 04:54:28;;;;;;;17.03;9.50;;;;;;;;;;5049539;28;20186;-67
2022/02/27 04:56:53;;;;;;;16.70;9.20;;;;;;;;;;5048502;28;20651;-66
2022/02/27 04:59:19;;;;;;;20.90;8.70;;;;;;;;;;5049310;28;20189;-67
2022/02/27 05:01:44;;;;;;;25.23;10.30;;;;;;;;;;5048912;28;20209;-67
2022/02/27 05:04:09;;;;;;;16.80;8.83;;;;;;;;;;5049506;28;20682;-67
2022/02/27 05:06:34;;;;;;;19.20;9.10;;;;;;;;;;5049684;28;20173;-67
2022/02/27 05:08:59;;;;;;;17.50;9.27;;;;;;;;;;5049343;28;20178;-68
2022/02/27 05:11:25;;;;;;;15.70;8.67;;;;;;;;;;5047729;28;20658;-67
2022/02/27 05:13:50;;;;;;;16.97;9.33;;;;;;;;;;5048997;28;20204;-67
2022/02/27 05:16:15;;;;;;;17.67;9.37;;;;;;;;;;5048186;28;20602;-67
2022/02/27 05:18:40;;;;;;;13.57;8.37;;;;;;;;;;5049408;28;20787;-68
2022/02/27 05:21:05;;;;;;;16.03;8.53;;;;;;;;;;5040275;28;20173;-67
2022/02/27 05:23:31;;;;;;;16.97;9.33;;;;;;;;;;5047997;28;20205;-68
2022/02/27 05:25:58;;;;;;;14.93;8.20;;;;;;;;;;5049237;28;20186;-67
2022/02/27 05:28:24;;;;;;;12.13;8.77;;;;;;;;;;5048753;28;20251;-67
2022/02/27 05:30:49;;;;;;;20.10;8.43;;;;;;;;;;5047907;28;20649;-67
2022/02/27 05:33:15;;;;;;;20.80;9.13;;;;;;;;;;5049578;28;20300;-67
2022/02/27 05:35:40;;;;;;;17.00;9.43;;;;;;;;;;5048303;28;20185;-67
2022/02/27 05:38:05;;;;;;;19.87;10.30;;;;;;;;;;5048876;28;20705;-67
2022/02/27 05:40:30;;;;;;;16.13;9.40;;;;;;;;;;5031880;28;20178;-67
2022/02/27 05:42:55;;;;;;;13.87;8.77;;;;;;;;;;5049369;28;20202;-67
2022/02/27 05:45:20;;;;;;;19.67;9.60;;;;;;;;;;5049064;28;20174;-67
2022/02/27 05:47:46;;;;;;;19.57;9.20;;;;;;;;;;5047949;28;20650;-67
2022/02/27 05:50:11;;;;;;;15.13;8.97;;;;;;;;;;5047985;28;20253;-68
2022/02/27 05:52:36;;;;;;;17.47;9.03;;;;;;;;;;5052439;28;20276;-67
2022/02/27 05:55:01;;;;;;;21.77;9.30;;;;;;;;;;5051839;28;20628;-67
2022/02/27 05:57:26;;;;;;;21.27;9.10;;;;;;;;;;5052543;28;20666;-68
2022/02/27 05:59:52;;;;;;;16.97;9.47;;;;;;;;;;5053310;28;20192;-66
2022/02/27 06:02:17;;;;;;;17.60;9.03;;;;;;;;;;5042588;28;20205;-67
2022/02/27 06:04:42;;;;;;;20.30;9.50;;;;;;;;;;5051377;28;20591;-67
2022/02/27 06:07:07;;;;;;;19.43;9.80;;;;;;;;;;5050549;28;20184;-67
2022/02/27 06:09:32;;;;;;;15.93;8.87;;;;;;;;;;5052249;28;20734;-67
2022/02/27 06:11:57;;;;;;;16.20;9.53;;;;;;;;;;5052045;28;20166;-67
2022/02/27 06:14:22;;;;;;;17.97;9.50;;;;;;;;;;5051354;28;20617;-66
2022/02/27 06:16:48;;;;;;;17.57;9.03;;;;;;;;;;5051604;28;20178;-67
2022/02/27 06:19:13;;;;;;;17.30;9.07;;;;;;;;;;5052723;28;20206;-67
2022/02/27 06:21:38;;;;;;;19.10;8.90;;;;;;;;;;5051870;28;20716;-66
2022/02/27 06:24:04;;;;;;;19.17;8.93;;;;;;;;;;5052687;28;20273;-66
2022/02/27 06:26:31;;;;;;;18.83;9.13;;;;;;;;;;5059310;28;20255;-67
2022/02/27 06:28:57;;;;;;;22.13;9.93;;;;;;;;;;5052042;28;20174;-67
2022/02/27 06:31:22;;;;;;;18.43;9.77;;;;;;;;;;5049991;28;20549;-66
2022/02/27 06:33:47;;;;;;;20.23;9.10;;;;;;;;;;5048852;28;20213;-67
2022/02/27 06:36:12;;;;;;;20.63;8.57;;;;;;;;;;5052797;28;20674;-68
2022/02/27 06:38:38;;;;;;;15.73;8.87;;;;;;;;;;5051842;28;20244;-69
2022/02/27 06:41:03;;;;;;;15.73;9.17;;;;;;;;;;5032678;28;20181;-68
2022/02/27 06:43:31;;;;;;;18.80;9.13;;;;;;;;;;5051288;28;20324;-69
2022/02/27 06:45:57;;;;;;;16.33;8.93;;;;;;;;;;5051139;28;20181;-69
2022/02/27 06:48:22;;;;;;;16.97;9.23;;;;;;;;;;5051392;28;20242;-69
2022/02/27 06:50:47;;;;;;;15.47;8.97;;;;;;;;;;5051520;28;20548;-69
2022/02/27 06:53:12;;;;;;;17.30;8.87;;;;;;;;;;5051378;28;20201;-69
2022/02/27 06:55:38;;;;;;;21.23;9.60;;;;;;;;;;5051364;28;20656;-68
2022/02/27 06:58:03;;;;;;;15.77;8.30;;;;;;;;;;5051540;28;20750;-69
2022/02/27 07:00:28;;;;;;;14.33;9.10;;;;;;;;;;5033275;28;20177;-69
2022/02/27 07:02:54;;;;;;;16.73;9.50;;;;;;;;;;5050161;28;20297;-68
2022/02/27 07:05:19;;;;;;;15.53;8.37;;;;;;;;;;5051398;28;20181;-68
2022/02/27 07:07:45;;;;;;;17.30;8.23;;;;;;;;;;5051572;28;20177;-67
2022/02/27 07:10:10;;;;;;;18.70;7.90;;;;;;;;;;5052036;28;20204;-68
2022/02/27 07:12:37;;;;;;;15.23;8.80;;;;;;;;;;5052222;28;20197;-68
2022/02/27 07:15:03;;;;;;;10.60;7.90;;;;;;;;;;5051680;28;20182;-68
2022/02/27 07:17:28;;;;;;;13.47;8.53;;;;;;;;;;5051356;28;20202;-68
2022/02/27 07:19:53;;;;;;;15.03;8.13;;;;;;;;;;5050035;28;20266;-68
2022/02/27 07:22:19;;;;;;;10.57;6.87;;;;;;;;;;5050383;28;20548;-69
2022/02/27 07:24:44;;;;;;;18.10;7.17;;;;;;;;;;5051045;28;20615;-67
2022/02/27 07:27:09;;;;;;;10.80;7.10;;;;;;;;;;5050489;28;20622;-67
2022/02/27 07:29:35;;;;;;;12.70;7.50;;;;;;;;;;5051446;28;20635;-69
2022/02/27 07:32:00;;;;;;;18.93;7.60;;;;;;;;;;5047638;28;20180;-68
2022/02/27 07:34:25;;;;;;;15.53;6.60;;;;;;;;;;5050441;28;20173;-67
2022/02/27 07:36:51;;;;;;;11.23;5.77;;;;;;;;;;5049643;28;20315;-65
2022/02/27 07:39:17;;;;;;;10.60;6.10;;;;;;;;;;5050212;28;20270;-66
2022/02/27 07:41:43;;;;;;;9.17;5.97;;;;;;;;;;5051007;28;20177;-67
2022/02/27 07:44:08;;;;;;;15.43;6.37;;;;;;;;;;5049606;28;20208;-67
2022/02/27 07:46:34;;;;;;;10.43;6.27;;;;;;;;;;5045774;28;20663;-66
2022/02/27 07:48:59;;;;;;;9.00;6.57;;;;;;;;;;5051505;28;20189;-67
2022/02/27 07:51:25;;;;;;;9.97;5.77;;;;;;;;;;5048770;28;20567;-67
2022/02/27 07:53:50;;;;;;;12.63;6.30;;;;;;;;;;5050593;28;20282;-67
2022/02/27 07:56:15;;;;;;;12.47;5.73;;;;;;;;;;5048167;28;20193;-67
2022/02/27 07:58:40;;;;;;;9.73;5.60;;;;;;;;;;5040150;28;20210;-66
2022/02/27 08:01:05;;;;;;;9.63;5.30;;;;;;;;;;5048613;28;20224;-67
2022/02/27 08:03:32;;;;;;;11.57;5.73;;;;;;;;;;5050583;28;20193;-66
2022/02/27 08:05:57;;;;;;;14.07;6.10;;;;;;;;;;5051455;28;20184;-66
2022/02/27 08:08:22;;;;;;;13.20;5.93;;;;;;;;;;5051177;28;20181;-66
2022/02/27 08:10:47;;;;;;;10.33;5.77;;;;;;;;;;5056999;28;20268;-67
2022/02/27 08:13:13;;;;;;;10.10;4.47;;;;;;;;;;5057594;28;20264;-67
2022/02/27 08:15:38;;;;;;;11.93;5.40;;;;;;;;;;5056257;28;20253;-67
2022/02/27 08:18:03;;;;;;;10.90;5.30;;;;;;;;;;5062194;28;20194;-67
2022/02/27 08:20:29;;;;;;;9.43;5.10;;;;;;;;;;5051368;28;20168;-66
2022/02/27 08:22:54;;;;;;;12.40;5.50;;;;;;;;;;5049276;28;20709;-67
2022/02/27 08:25:19;;;;;;;9.07;4.97;;;;;;;;;;5052641;28;20182;-67
2022/02/27 08:27:45;;;;;;;7.73;5.07;;;;;;;;;;5057767;28;20188;-67
2022/02/27 08:30:10;;;;;;;10.77;5.07;;;;;;;;;;5042170;28;20243;-68
2022/02/27 08:32:36;;;;;;;10.67;4.60;;;;;;;;;;5051015;28;20599;-69
2022/02/27 08:35:01;;;;;;;10.60;4.60;;;;;;;;;;5051089;28;20680;-69
2022/02/27 08:37:26;;;;;;;8.93;4.67;;;;;;;;;;5063813;28;20270;-69
2022/02/27 08:39:52;;;;;;;10.03;4.60;;;;;;;;;;5064299;28;20169;-69
2022/02/27 08:42:17;;;;;;;10.77;4.30;;;;;;;;;;5059858;28;20201;-69
2022/02/27 08:44:42;;;;;;;6.37;3.73;;;;;;;;;;5050109;28;20170;-69
2022/02/27 08:47:07;;;;;;;9.57;4.10;;;;;;;;;;5050934;28;20170;-69
2022/02/27 08:49:34;;;;;;;7.40;3.93;;;;;;;;;;5051131;28;20181;-69
2022/02/27 08:51:59;;;;;;;8.90;4.00;;;;;;;;;;5058252;28;20177;-69
2022/02/27 08:54:24;;;;;;;8.77;4.43;;;;;;;;;;5051515;28;20177;-69
2022/02/27 08:56:49;;;;;;;8.43;4.23;;;;;;;;;;5061332;28;20688;-69
2022/02/27 08:59:15;;;;;;;7.40;3.80;;;;;;;;;;5049705;28;20236;-69
2022/02/27 09:01:40;;;;;;;8.03;4.33;;;;;;;;;;5049992;28;20652;-69
2022/02/27 09:04:05;;;;;;;9.93;4.07;;;;;;;;;;5049224;28;20201;-69
2022/02/27 09:06:30;;;;;;;10.60;4.83;;;;;;;;;;5051584;28;20164;-69
2022/02/27 09:08:55;;;;;;;5.80;3.80;;;;;;;;;;5049652;28;20177;-69
2022/02/27 09:11:21;;;;;;;14.30;5.07;;;;;;;;;;5064361;28;20192;-69
2022/02/27 09:13:46;;;;;;;8.83;4.57;;;;;;;;;;5050174;28;20216;-69
2022/02/27 09:16:11;;;;;;;8.63;4.57;;;;;;;;;;5050937;28;20177;-69
2022/02/27 09:18:36;;;;;;;12.57;4.23;;;;;;;;;;5053980;28;20205;-69
2022/02/27 09:21:02;;;;;;;11.33;4.43;;;;;;;;;;5062416;28;20192;-69
2022/02/27 09:23:27;;;;;;;9.10;4.03;;;;;;;;;;5049077;28;20571;-69
2022/02/27 09:25:53;;;;;;;9.70;3.83;;;;;;;;;;5057145;28;20244;-69
2022/02/27 09:28:18;;;;;;;8.93;4.40;;;;;;;;;;5053331;28;20181;-69
2022/02/27 09:30:43;;;;;;;9.93;4.17;;;;;;;;;;5055222;28;20263;-69
2022/02/27 09:33:09;;;;;;;8.57;3.73;;;;;;;;;;5057985;28;20205;-69
2022/02/27 09:35:34;;;;;;;6.73;3.70;;;;;;;;;;5064364;28;20177;-69
2022/02/27 09:38:00;;;;;;;8.73;3.60;;;;;;;;;;5051807;28;20229;-69
2022/02/27 09:40:25;;;;;;;9.97;3.90;;;;;;;;;;5052970;28;20174;-69
2022/02/27 09:42:52;;;;;;;6.70;3.10;;;;;;;;;;5052411;28;20664;-69
2022/02/27 09:45:18;;;;;;;9.23;3.50;;;;;;;;;;5034826;28;20178;-69
2022/02/27 09:47:43;;;;;;;4.50;3.60;;;;;;;;;;5056407;28;20188;-69
2022/02/27 09:50:09;;;;;;;6.10;3.40;;;;;;;;;;5033325;28;20182;-69
2022/02/27 09:52:34;;;;;;;6.87;3.60;;;;;;;;;;5033480;28;20692;-69
2022/02/27 09:54:59;;;;;;;7.90;3.67;;;;;;;;;;5051351;28;20188;-69
2022/02/27 09:57:24;;;;;;;8.20;3.60;;;;;;;;;;5051339;28;20209;-69
2022/02/27 09:59:50;;;;;;;7.13;3.73;;;;;;;;;;5053476;28;20170;-69
2022/02/27 10:02:15;;;;;;;8.13;4.03;;;;;;;;;;5051345;28;20201;-69
2022/02/27 10:04:41;;;;;;;7.60;3.63;;;;;;;;;;5048831;28;21145;-69
2022/02/27 10:07:08;;;;;;;7.47;3.50;;;;;;;;;;5036888;28;20177;-69
2022/02/27 10:09:33;;;;;;;6.03;3.70;;;;;;;;;;5044274;28;20178;-69
2022/02/27 10:12:15;;;;;;;5.97;3.43;;;;;;;;;;5048506;28;20593;-69
2022/02/27 10:14:40;;;;;;;6.63;3.83;;;;;;;;;;5049063;28;20170;-69
2022/02/27 10:17:06;;;;;;;4.47;3.50;;;;;;;;;;5051481;28;20639;-69
2022/02/27 10:19:37;;;;;;;11.40;3.70;;;;;;;;;;5043524;28;20670;-69
2022/02/27 10:22:02;;;;;;;5.53;3.50;;;;;;;;;;5051322;28;20173;-69
2022/02/27 10:24:27;;;;;;;6.27;3.47;;;;;;;;;;5045395;28;20173;-69
2022/02/27 10:26:53;;;;;;;4.23;3.40;;;;;;;;;;5052338;28;20595;-69
2022/02/27 10:29:22;;;;;;;8.32;3.63;;;;;;;;;;5051474;28;20182;-69
2022/02/27 10:31:47;;;;;;;11.05;4.32;;;;;;;;;;5050234;28;20232;-69
2022/02/27 10:34:13;;;;;;;8.35;3.70;;;;;;;;;;5049166;28;20682;-69
2022/02/27 10:36:48;;;;;;;4.65;3.67;;;;;;;;;;5051116;28;20260;-69
2022/02/27 10:39:24;;;;;;;5.90;3.20;;;;;;;;;;5051075;28;20213;-69
2022/02/27 10:41:49;;;;;;;7.15;3.55;;;;;;;;;;5051372;28;20170;-69
2022/02/27 10:44:20;;;;;;;6.18;3.30;;;;;;;;;;5050184;28;20559;-69
2022/02/27 10:46:46;;;;;;;5.38;3.33;;;;;;;;;;5046535;28;21312;-69
2022/02/27 10:49:11;;;;;;;7.93;3.63;;;;;;;;;;5050225;28;20210;-69
2022/02/27 10:51:36;;;;;;;6.22;3.20;;;;;;;;;;5051466;28;20191;-69
2022/02/27 10:54:02;;;;;;;6.15;3.28;;;;;;;;;;5048750;28;20193;-69
2022/02/27 10:56:32;;;;;;;8.40;3.47;;;;;;;;;;5053621;28;20200;-69
2022/02/27 10:58:57;;;;;;;8.18;3.38;;;;;;;;;;5050657;28;20201;-69
2022/02/27 11:01:23;;;;;;;8.13;3.20;;;;;;;;;;5049045;28;20607;-69
2022/02/27 11:03:50;;;;;;;7.28;3.13;;;;;;;;;;5049449;28;20201;-69
2022/02/27 11:06:16;;;;;;;4.65;3.28;;;;;;;;;;5046988;28;20190;-70
2022/02/27 11:08:42;;;;;;;6.88;3.33;;;;;;;;;;5050295;28;20194;-69
2022/02/27 11:11:07;;;;;;;6.13;3.43;;;;;;;;;;5050490;28;20186;-70
2022/02/27 11:13:33;;;;;;;5.43;3.20;;;;;;;;;;5049886;28;20588;-69
2022/02/27 11:15:59;;;;;;;5.37;3.53;;;;;;;;;;5050090;28;20682;-69
2022/02/27 11:18:24;;;;;;;5.27;2.70;;;;;;;;;;5049173;28;20221;-70
2022/02/27 11:20:50;;;;;;;6.27;3.23;;;;;;;;;;5049499;28;20181;-70
2022/02/27 11:23:15;;;;;;;9.90;3.50;;;;;;;;;;5047667;28;20223;-69
2022/02/27 11:25:40;;;;;;;7.00;3.07;;;;;;;;;;5051218;28;20177;-69
2022/02/27 11:28:08;;;;;;;5.17;3.13;;;;;;;;;;5051051;28;20192;-69
2022/02/27 11:30:35;;;;;;;5.10;2.90;;;;;;;;;;5047057;28;20197;-69
2022/02/27 11:33:05;;;;;;;5.40;3.13;;;;;;;;;;5047953;28;20758;-69
2022/02/27 11:35:51;;;;;;;5.53;3.00;;;;;;;;;;5049786;28;20651;-69
2022/02/27 11:38:28;;;;;;;5.00;3.03;;;;;;;;;;5044926;28;20219;-69
2022/02/27 11:40:56;;;;;;;3.83;2.90;;;;;;;;;;5049743;28;20173;-69
2022/02/27 11:43:39;;;;;;;6.00;3.30;;;;;;;;;;5044559;28;20244;-69
2022/02/27 11:46:05;;;;;;;5.07;2.87;;;;;;;;;;5048380;28;20436;-69
2022/02/27 11:48:53;;;;;;;7.27;2.90;;;;;;;;;;5047833;28;20190;-69
2022/02/27 11:51:36;;;;;;;3.63;3.00;;;;;;;;;;5046889;28;20239;-69
2022/02/27 11:54:09;;;;;;;5.23;3.03;;;;;;;;;;5044665;28;20308;-69
2022/02/27 11:56:37;;;;;;;3.43;2.90;;;;;;;;;;5050849;28;20643;-69
2022/02/27 11:59:02;;;;;;;4.07;3.07;;;;;;;;;;5059069;28;20215;-69
2022/02/27 12:01:54;;;;;;;5.50;3.00;;;;;;;;;;5049356;28;20556;-69
2022/02/27 12:04:19;;;;;;;4.90;3.60;;;;;;;;;;5045580;28;20192;-69
2022/02/27 12:06:57;;;;;;;5.60;3.43;;;;;;;;;;5051043;28;20177;-69
2022/02/27 12:09:22;;;;;;;5.73;3.23;;;;;;;;;;5053067;28;20471;-69
2022/02/27 12:11:47;;;;;;;5.40;3.90;;;;;;;;;;5053745;28;20272;-69
2022/02/27 12:14:12;;;;;;;5.87;3.87;;;;;;;;;;5051444;28;20174;-69
2022/02/27 12:16:42;;;;;;;4.27;3.20;;;;;;;;;;5041933;28;20257;-69
2022/02/27 12:19:22;;;;;;;5.10;2.63;;;;;;;;;;5045501;28;20205;-69
2022/02/27 12:21:49;;;;;;;6.82;3.67;;;;;;;;;;5050490;28;20182;-70
2022/02/27 12:24:14;;;;;;;5.82;3.00;;;;;;;;;;5049720;28;20265;-70
2022/02/27 12:26:42;;;;;;;8.63;4.88;;;;;;;;;;5046479;28;20511;-70
2022/02/27 12:29:16;;;;;;;9.73;3.90;;;;;;;;;;5031977;28;20192;-70
2022/02/27 12:31:42;;;;;;;5.63;3.22;;;;;;;;;;5050572;28;20189;-70
2022/02/27 12:34:08;;;;;;;7.05;3.20;;;;;;;;;;5048235;28;20213;-68
2022/02/27 12:36:36;;;;;;;5.10;3.43;;;;;;;;;;5049947;28;20185;-70
2022/02/27 12:39:04;;;;;;;4.00;3.30;;;;;;;;;;5049145;28;20213;-69
2022/02/27 12:41:31;;;;;;;8.53;3.83;;;;;;;;;;5048227;28;20179;-70
2022/02/27 12:43:56;;;;;;;6.80;3.08;;;;;;;;;;5049202;28;20193;-69
2022/02/27 12:46:22;;;;;;;4.78;3.22;;;;;;;;;;5048441;28;20196;-70
2022/02/27 12:51:32;;;;;;;5.23;3.50;;;;;;;;;;5048914;28;20273;-69
2022/02/27 12:53:58;;;;;;;6.18;3.50;;;;;;;;;;5046295;28;20624;-70
2022/02/27 12:56:24;;;;;;;5.10;3.07;;;;;;;;;;5047295;28;20412;-69
2022/02/27 12:58:52;;;;;;;5.00;3.37;;;;;;;;;;5034067;28;20235;-69
2022/02/27 13:01:18;;;;;;;6.17;4.17;;;;;;;;;;5050895;28;20228;-70
2022/02/27 13:03:43;;;;;;;5.03;3.37;;;;;;;;;;5054689;28;20193;-70
2022/02/27 13:06:08;;;;;;;6.33;3.30;;;;;;;;;;5050378;28;20182;-70
2022/02/27 13:08:33;;;;;;;6.57;3.60;;;;;;;;;;5052504;28;20702;-70
2022/02/27 13:10:59;;;;;;;5.73;3.37;;;;;;;;;;5051370;28;20195;-70
2022/02/27 13:13:25;;;;;;;10.27;4.30;;;;;;;;;;5051863;28;20401;-70
2022/02/27 13:15:51;;;;;;;8.90;4.27;;;;;;;;;;5049773;28;20678;-70
2022/02/27 13:18:17;;;;;;;5.30;3.73;;;;;;;;;;5049182;28;20205;-70
2022/02/27 13:20:42;;;;;;;10.57;5.53;;;;;;;;;;5053776;28;20227;-69
2022/02/27 13:23:07;;;;;;;5.70;3.60;;;;;;;;;;5054470;28;20418;-69
2022/02/27 13:25:33;;;;;;;4.47;3.37;;;;;;;;;;5050700;28;20170;-69
2022/02/27 13:28:00;;;;;;;6.80;3.53;;;;;;;;;;5054288;28;20172;-70
2022/02/27 13:30:26;;;;;;;5.87;3.40;;;;;;;;;;5050214;28;20235;-70
2022/02/27 13:32:53;;;;;;;6.70;3.27;;;;;;;;;;5053579;28;20209;-70
2022/02/27 13:35:24;;;;;;;6.37;3.50;;;;;;;;;;5051176;28;20189;-69
2022/02/27 13:37:51;;;;;;;6.63;3.13;;;;;;;;;;5053610;28;20238;-69
2022/02/27 13:40:18;;;;;;;6.05;3.83;;;;;;;;;;5050923;28;20182;-69
2022/02/27 13:42:44;;;;;;;5.22;3.25;;;;;;;;;;5054419;28;20308;-69
2022/02/27 13:45:12;;;;;;;4.68;3.03;;;;;;;;;;5051466;28;20651;-70
2022/02/27 13:47:38;;;;;;;4.97;3.30;;;;;;;;;;5054053;28;20672;-70
2022/02/27 13:50:15;;;;;;;6.53;3.40;;;;;;;;;;5053086;28;20216;-69
2022/02/27 13:52:41;;;;;;;6.85;3.55;;;;;;;;;;5048017;28;20198;-70
2022/02/27 13:55:06;;;;;;;4.18;3.22;;;;;;;;;;5049534;28;20180;-69
2022/02/27 13:57:33;;;;;;;6.45;3.05;;;;;;;;;;5046250;28;20550;-70
2022/02/27 14:00:05;;;;;;;5.53;3.28;;;;;;;;;;5048714;28;20173;-70
2022/02/27 14:02:33;;;;;;;4.90;3.45;;;;;;;;;;5053025;28;20213;-68
2022/02/27 14:05:13;;;;;;;11.38;3.72;;;;;;;;;;5049353;28;20181;-70
2022/02/27 14:07:40;;;;;;;7.57;3.28;;;;;;;;;;5048532;28;20223;-69
2022/02/27 14:10:06;;;;;;;5.40;3.25;;;;;;;;;;5052903;28;20186;-68
2022/02/27 14:12:32;;;;;;;7.13;3.38;;;;;;;;;;5025494;28;20204;-69
2022/02/27 14:14:57;;;;;;;8.07;3.75;;;;;;;;;;5051661;28;20216;-70
2022/02/27 14:17:23;;;;;;;5.83;4.10;;;;;;;;;;5052461;28;20186;-69
2022/02/27 14:19:49;;;;;;;4.13;2.80;;;;;;;;;;5049841;28;20273;-69
2022/02/27 14:22:14;;;;;;;7.67;3.27;;;;;;;;;;5053356;28;20633;-69
2022/02/27 14:24:47;;;;;;;5.03;2.70;;;;;;;;;;5048238;28;20185;-70
2022/02/27 14:27:19;;;;;;;3.17;2.40;;;;;;;;;;5053532;28;20193;-69